Time;durP1;ratioP1;P1;durP2;ratioP2;P2;SDS_P1;SDS_P2;PMS_P1;PMS_P2;Temp;Humidity;BMP_temperature;BMP_pressure;BME280_temperature;BME280_humidity;BME280_pressure;Samples;Min_cycle;Max_cycle;Signal;HPM_P1;HPM_P2
2021/07/10 00:03:36;;;;;;;9.93;6.85;;;;;;;19.70;83.71;100579.87;255874;1096;114497;-74
2021/07/10 00:08:38;;;;;;;11.00;6.83;;;;;;;19.70;83.25;100585.23;255789;1094;114563;-75
2021/07/10 00:13:41;;;;;;;8.00;6.58;;;;;;;19.70;83.70;100590.59;255811;1095;114815;-74
2021/07/10 00:18:43;;;;;;;7.80;6.83;;;;;;;19.73;83.21;100590.16;258498;1090;114500;-73
2021/07/10 00:23:45;;;;;;;8.13;6.50;;;;;;;19.69;83.53;100588.92;255636;1096;114484;-71
2021/07/10 00:28:48;;;;;;;8.90;7.50;;;;;;;19.69;83.80;100591.60;255600;1095;114576;-70
2021/07/10 00:33:50;;;;;;;8.18;6.85;;;;;;;19.65;83.71;100602.95;255514;1095;114847;-70
2021/07/10 00:38:53;;;;;;;10.65;7.95;;;;;;;19.71;83.66;100592.23;255593;1096;114549;-72
2021/07/10 00:43:55;;;;;;;8.40;7.50;;;;;;;19.65;83.87;100590.38;255696;1095;114642;-70
2021/07/10 00:48:58;;;;;;;10.08;9.05;;;;;;;19.59;84.50;100577.78;255630;1095;114653;-70
2021/07/10 00:54:02;;;;;;;9.10;8.00;;;;;;;19.69;84.05;100570.15;255348;1096;114668;-72
2021/07/10 00:59:05;;;;;;;10.07;7.97;;;;;;;19.73;84.02;100563.34;256133;1096;114640;-71
2021/07/10 01:04:08;;;;;;;8.93;7.98;;;;;;;19.74;84.27;100558.83;256401;1096;114736;-71
2021/07/10 01:09:10;;;;;;;10.03;9.03;;;;;;;19.58;84.56;100538.58;256971;1095;114574;-72
2021/07/10 01:14:13;;;;;;;11.48;9.75;;;;;;;19.51;85.02;100537.78;256797;1095;114667;-72
2021/07/10 01:19:28;;;;;;;10.58;9.25;;;;;;;19.43;85.03;100540.67;256516;1096;114458;-72
2021/07/10 01:24:30;;;;;;;11.38;9.63;;;;;;;19.42;84.91;100525.61;256092;1096;115242;-72
2021/07/10 01:29:35;;;;;;;12.83;10.00;;;;;;;19.41;84.98;100521.28;255835;1096;114562;-72
2021/07/10 01:34:37;;;;;;;10.60;8.80;;;;;;;19.38;84.97;100529.73;256019;1095;114692;-70
2021/07/10 01:39:42;;;;;;;11.27;9.87;;;;;;;19.34;85.27;100518.60;256264;1096;114549;-71
2021/07/10 01:44:45;;;;;;;11.28;10.23;;;;;;;19.25;85.13;100499.23;256110;1094;114626;-72
2021/07/10 01:49:47;;;;;;;12.08;10.83;;;;;;;19.20;85.56;100498.22;255951;1095;114708;-71
2021/07/10 01:54:50;;;;;;;13.00;10.83;;;;;;;19.16;85.52;100499.67;255801;1096;115218;-75
2021/07/10 01:59:52;;;;;;;13.20;9.87;;;;;;;19.10;85.74;100520.05;255652;1096;115006;-73
2021/07/10 02:04:54;;;;;;;13.83;10.85;;;;;;;19.11;85.89;100500.27;255965;1095;114918;-73
2021/07/10 02:09:56;;;;;;;11.27;9.83;;;;;;;19.14;85.79;100510.57;256599;1097;114907;-72
2021/07/10 02:14:59;;;;;;;11.33;10.05;;;;;;;19.15;85.55;100514.89;255307;1096;114592;-72
2021/07/10 02:20:04;;;;;;;11.70;10.60;;;;;;;19.13;85.60;100516.97;255648;1096;114998;-71
2021/07/10 02:25:09;;;;;;;11.83;10.60;;;;;;;19.15;85.94;100525.61;256430;1096;115071;-70
2021/07/10 02:30:14;;;;;;;15.10;10.45;;;;;;;19.17;85.68;100526.24;255563;1096;114990;-71
2021/07/10 02:35:17;;;;;;;12.88;11.55;;;;;;;19.22;85.92;100529.13;256034;1095;115129;-71
2021/07/10 02:40:21;;;;;;;12.85;11.45;;;;;;;19.26;85.50;100535.71;255888;1096;115239;-71
2021/07/10 02:45:24;;;;;;;11.70;10.58;;;;;;;19.21;85.46;100554.27;255905;1094;115266;-72
2021/07/10 02:50:27;;;;;;;13.38;11.95;;;;;;;19.17;85.93;100555.72;255750;1095;115830;-71
2021/07/10 02:55:29;;;;;;;13.23;11.80;;;;;;;19.12;86.04;100560.05;256212;1095;114640;-71
2021/07/10 03:00:32;;;;;;;13.80;12.40;;;;;;;19.18;85.87;100570.75;255824;1095;115254;-71
2021/07/10 03:05:34;;;;;;;12.88;11.18;;;;;;;19.23;85.83;100557.59;256144;1096;115133;-70
2021/07/10 03:10:37;;;;;;;12.40;11.15;;;;;;;19.22;85.92;100565.81;256019;1094;114759;-71
2021/07/10 03:15:39;;;;;;;14.73;12.60;;;;;;;19.24;86.38;100575.30;256145;1095;115181;-71
2021/07/10 03:20:42;;;;;;;14.13;12.58;;;;;;;19.22;86.11;100576.53;258285;1097;115181;-71
2021/07/10 03:25:47;;;;;;;14.60;12.33;;;;;;;19.18;86.41;100570.75;256072;1095;114839;-71
2021/07/10 03:30:52;;;;;;;14.78;13.43;;;;;;;19.15;86.52;100576.52;256277;1094;114907;-71
2021/07/10 03:35:54;;;;;;;16.13;12.68;;;;;;;19.20;86.15;100579.42;255977;1095;115254;-72
2021/07/10 03:40:57;;;;;;;16.93;12.60;;;;;;;19.22;85.85;100593.43;255858;1095;115366;-72
2021/07/10 03:46:02;;;;;;;14.77;12.93;;;;;;;19.23;86.19;100583.53;255426;1095;115146;-72
2021/07/10 03:51:06;;;;;;;15.18;13.50;;;;;;;19.28;86.30;100581.91;255668;1094;115295;-71
2021/07/10 03:56:08;;;;;;;15.68;13.90;;;;;;;19.38;85.73;100591.38;255631;1095;115059;-72
2021/07/10 04:01:10;;;;;;;17.35;13.28;;;;;;;19.37;85.23;100584.38;255611;1095;115559;-70
2021/07/10 04:06:12;;;;;;;16.53;14.93;;;;;;;19.38;85.85;100596.73;255720;1097;114915;-71
2021/07/10 04:11:15;;;;;;;18.03;14.93;;;;;;;19.36;85.85;100594.28;255932;1095;114843;-71
2021/07/10 04:16:17;;;;;;;17.70;15.78;;;;;;;19.33;85.57;100611.59;255594;1095;115213;-73
2021/07/10 04:21:19;;;;;;;19.27;17.03;;;;;;;19.34;84.84;100623.95;256696;1096;114781;-72
2021/07/10 04:26:21;;;;;;;18.00;15.83;;;;;;;19.30;85.19;100628.06;256555;1096;115030;-70
2021/07/10 04:31:24;;;;;;;20.23;18.20;;;;;;;19.28;84.63;100630.14;255902;1096;114888;-73
2021/07/10 04:36:26;;;;;;;22.23;19.85;;;;;;;19.26;84.67;100628.69;255966;1097;114941;-71
2021/07/10 04:41:28;;;;;;;19.30;17.30;;;;;;;19.24;83.72;100634.27;255769;1097;114690;-71
2021/07/10 04:46:30;;;;;;;17.10;15.30;;;;;;;19.04;83.03;100628.05;255639;1096;114784;-73
2021/07/10 04:51:32;;;;;;;14.80;13.40;;;;;;;18.88;82.18;100633.75;256303;1096;115769;-71
2021/07/10 04:56:35;;;;;;;11.98;10.78;;;;;;;18.81;81.64;100634.56;255631;1095;115440;-72
2021/07/10 05:01:37;;;;;;;10.13;8.80;;;;;;;18.59;81.84;100631.15;255177;1096;114902;-71
2021/07/10 05:06:39;;;;;;;9.40;8.30;;;;;;;18.55;81.32;100639.78;255569;1095;115051;-72
2021/07/10 05:11:42;;;;;;;9.93;8.93;;;;;;;18.51;81.37;100650.06;255684;1095;114502;-70
2021/07/10 05:16:45;;;;;;;7.88;7.18;;;;;;;18.37;81.55;100648.33;256031;1095;114568;-71
2021/07/10 05:21:48;;;;;;;6.83;5.80;;;;;;;18.26;81.56;100657.76;255962;1095;114898;-72
2021/07/10 05:26:50;;;;;;;6.05;5.25;;;;;;;18.27;80.63;100664.76;255586;1094;114587;-71
2021/07/10 05:31:53;;;;;;;10.35;5.93;;;;;;;18.11;81.27;100652.52;255596;1095;114620;-72
2021/07/10 05:36:55;;;;;;;5.60;5.03;;;;;;;18.01;81.40;100637.83;255502;1096;114816;-71
2021/07/10 05:41:57;;;;;;;10.75;5.20;;;;;;;17.87;80.86;100653.80;255254;1096;115320;-71
2021/07/10 05:47:00;;;;;;;5.90;4.10;;;;;;;17.65;81.79;100662.83;255738;1096;115282;-71
2021/07/10 05:52:02;;;;;;;5.48;3.68;;;;;;;17.54;81.80;100671.36;255619;1095;114812;-72
2021/07/10 05:57:05;;;;;;;4.15;3.30;;;;;;;17.48;81.30;100685.51;255801;1096;114295;-70
2021/07/10 06:02:07;;;;;;;4.38;3.48;;;;;;;17.49;82.06;100697.84;255699;1096;114605;-72
2021/07/10 06:07:10;;;;;;;5.65;3.33;;;;;;;17.70;81.37;100687.13;255465;1096;114720;-70
2021/07/10 06:12:12;;;;;;;6.20;2.50;;;;;;;17.66;81.78;100677.84;255659;1096;114525;-70
2021/07/10 06:17:14;;;;;;;6.90;3.58;;;;;;;17.84;81.88;100680.91;255676;1096;114737;-71
2021/07/10 06:22:16;;;;;;;3.37;2.87;;;;;;;17.80;80.90;100695.69;255781;1095;114304;-72
2021/07/10 06:27:18;;;;;;;5.78;4.75;;;;;;;17.82;81.15;100693.63;255411;1095;114398;-71
2021/07/10 06:32:21;;;;;;;3.43;2.58;;;;;;;17.82;79.22;100688.28;255425;1095;114502;-73
2021/07/10 06:37:23;;;;;;;3.18;2.53;;;;;;;17.71;78.94;100696.83;255713;1096;114608;-71
2021/07/10 06:42:25;;;;;;;3.85;2.58;;;;;;;17.58;78.41;100696.69;255380;1095;114735;-71
2021/07/10 06:47:27;;;;;;;3.30;3.00;;;;;;;17.65;78.80;100684.21;255270;1095;114968;-73
2021/07/10 06:52:30;;;;;;;4.80;4.40;;;;;;;17.73;78.31;100689.42;256446;1096;114404;-72
2021/07/10 06:57:32;;;;;;;5.05;4.30;;;;;;;17.62;77.84;100692.61;256923;1096;114425;-73
2021/07/10 07:02:35;;;;;;;2.28;2.08;;;;;;;17.64;76.70;100695.94;257113;1095;114305;-76
2021/07/10 07:07:38;;;;;;;1.83;1.35;;;;;;;17.65;75.94;100702.92;256543;1096;115095;-78
2021/07/10 07:12:41;;;;;;;1.33;1.23;;;;;;;17.84;75.88;100696.95;256934;1095;114381;-77
2021/07/10 07:17:44;;;;;;;1.63;1.10;;;;;;;17.85;74.82;100709.30;256732;1094;114491;-73
2021/07/10 07:22:49;;;;;;;1.43;0.90;;;;;;;17.82;74.96;100693.63;255489;1095;114488;-72
2021/07/10 07:27:53;;;;;;;1.53;1.30;;;;;;;18.02;74.89;100715.22;256703;1095;114438;-78
2021/07/10 07:32:55;;;;;;;1.75;1.50;;;;;;;18.08;73.00;100727.80;257076;1096;114604;-73
2021/07/10 07:37:57;;;;;;;1.40;1.30;;;;;;;18.15;73.50;100714.48;256961;1095;114365;-77
2021/07/10 07:43:00;;;;;;;1.80;1.50;;;;;;;18.34;72.96;100729.03;256957;1095;115558;-72
2021/07/10 07:48:02;;;;;;;3.58;1.50;;;;;;;18.28;73.06;100730.61;256784;1096;115261;-75
2021/07/10 07:53:04;;;;;;;2.08;1.40;;;;;;;18.43;73.14;100721.66;257136;1095;114549;-73
2021/07/10 07:58:06;;;;;;;1.85;0.80;;;;;;;18.39;72.75;100744.49;256681;1096;114720;-73
2021/07/10 08:03:08;;;;;;;0.55;0.55;;;;;;;18.33;72.64;100749.61;256876;1095;114672;-73
2021/07/10 08:08:12;;;;;;;0.73;0.73;;;;;;;18.24;71.70;100774.02;255895;1096;114743;-75
2021/07/10 08:13:14;;;;;;;1.67;0.77;;;;;;;18.46;71.81;100764.92;256075;1095;115016;-71
2021/07/10 08:18:16;;;;;;;1.63;0.80;;;;;;;18.56;72.38;100764.56;255247;1095;115187;-72
2021/07/10 08:23:19;;;;;;;2.15;1.30;;;;;;;18.52;70.79;100774.83;257308;1096;114318;-79
2021/07/10 08:28:21;;;;;;;0.83;0.83;;;;;;;18.47;70.47;100779.13;259004;1096;115002;-78
2021/07/10 08:33:23;;;;;;;3.20;2.35;;;;;;;18.55;72.09;100776.30;256952;1096;114707;-78
2021/07/10 08:38:25;;;;;;;1.60;0.80;;;;;;;18.64;70.96;100785.00;256668;1095;114736;-76
2021/07/10 08:43:28;;;;;;;1.33;0.70;;;;;;;18.73;70.69;100776.66;256837;1096;114674;-79
2021/07/10 08:48:31;;;;;;;1.03;0.90;;;;;;;18.87;69.43;100787.44;256750;1096;115459;-76
2021/07/10 08:53:34;;;;;;;1.50;1.40;;;;;;;19.05;69.38;100790.42;256812;1096;114595;-76
2021/07/10 08:58:37;;;;;;;0.90;0.90;;;;;;;19.20;70.08;100783.08;256818;1096;114364;-72
2021/07/10 09:03:41;;;;;;;1.85;1.75;;;;;;;19.16;69.31;100786.36;257552;1096;114432;-72
2021/07/10 09:08:54;;;;;;;4.73;3.18;;;;;;;19.21;69.69;100778.54;256948;1096;114738;-73
2021/07/10 09:13:57;;;;;;;4.10;3.50;;;;;;;19.31;69.34;100784.36;256276;1095;114540;-73
2021/07/10 09:19:05;;;;;;;1.60;1.50;;;;;;;19.42;68.56;100782.94;257462;1096;114771;-72
2021/07/10 09:24:15;;;;;;;2.43;1.23;;;;;;;19.87;67.92;100794.02;258428;1096;114815;-73
2021/07/10 09:29:25;;;;;;;2.45;1.98;;;;;;;19.78;67.02;100802.26;257160;1095;114531;-72
2021/07/10 09:34:30;;;;;;;2.05;0.80;;;;;;;19.69;67.54;100803.45;257042;1096;118203;-72
2021/07/10 09:39:40;;;;;;;5.80;3.78;;;;;;;19.71;68.22;100809.46;255717;1096;114664;-72
2021/07/10 09:44:50;;;;;;;3.13;0.98;;;;;;;19.92;66.54;100807.63;255639;1095;114576;-74
2021/07/10 09:49:52;;;;;;;1.43;1.20;;;;;;;19.87;66.68;100815.48;256155;1095;114650;-75
2021/07/10 09:55:07;;;;;;;1.15;1.15;;;;;;;19.69;65.86;100818.72;255790;1096;114479;-72
2021/07/10 10:00:20;;;;;;;1.10;1.00;;;;;;;19.59;66.54;100816.41;256251;1094;114801;-75
2021/07/10 10:05:30;;;;;;;0.85;0.85;;;;;;;19.65;65.96;100826.34;255877;1096;114846;-75
2021/07/10 10:10:36;;;;;;;1.90;1.55;;;;;;;19.62;66.02;100828.60;256844;1096;114368;-72
2021/07/10 10:15:42;;;;;;;1.80;0.90;;;;;;;19.80;65.67;100832.37;256075;1095;114496;-72
2021/07/10 10:20:45;;;;;;;1.30;1.08;;;;;;;19.64;65.41;100838.11;256457;1096;114615;-77
2021/07/10 10:25:48;;;;;;;1.53;0.75;;;;;;;19.55;64.72;100856.20;256335;1096;114655;-76
2021/07/10 10:30:53;;;;;;;4.28;3.90;;;;;;;19.42;65.15;100855.30;256084;1095;114525;-72
2021/07/10 10:35:56;;;;;;;2.77;2.57;;;;;;;19.55;65.75;100855.38;256209;1095;114516;-73
2021/07/10 10:41:02;;;;;;;3.25;1.75;;;;;;;19.37;66.22;100863.95;256366;1094;114431;-79
2021/07/10 10:46:20;;;;;;;1.70;1.20;;;;;;;19.44;65.83;100858.63;260785;1096;114487;-73
2021/07/10 10:51:22;;;;;;;2.60;1.30;;;;;;;19.32;67.46;100869.09;257243;1096;114553;-76
2021/07/10 10:56:38;;;;;;;3.65;3.35;;;;;;;19.30;67.47;100873.81;256837;1096;114415;-72
2021/07/10 11:01:40;;;;;;;1.35;1.08;;;;;;;19.20;67.78;100879.55;256699;1096;115532;-75
2021/07/10 11:06:42;;;;;;;1.93;1.18;;;;;;;19.12;66.77;100882.39;256515;1094;114700;-76
2021/07/10 11:11:45;;;;;;;3.40;1.97;;;;;;;19.09;67.58;100890.81;256277;1095;115170;-74
2021/07/10 11:17:05;;;;;;;1.63;1.53;;;;;;;19.05;68.43;100897.59;256269;1096;114532;-72
2021/07/10 11:22:07;;;;;;;2.15;1.38;;;;;;;18.88;66.92;100899.75;255983;1096;114870;-72
2021/07/10 11:27:09;;;;;;;2.18;1.50;;;;;;;18.82;67.14;100904.02;255433;1096;114473;-72
2021/07/10 11:32:12;;;;;;;2.38;1.90;;;;;;;18.94;66.68;100900.80;256361;1096;114417;-75
2021/07/10 11:37:22;;;;;;;1.90;1.80;;;;;;;19.05;68.46;100903.77;256175;1096;114692;-72
2021/07/10 11:42:28;;;;;;;1.67;1.57;;;;;;;19.00;67.69;100910.75;255981;1096;114443;-70
2021/07/10 11:47:52;;;;;;;2.05;1.90;;;;;;;19.09;67.49;100909.56;255589;1095;114988;-72
2021/07/10 11:52:59;;;;;;;3.30;1.70;;;;;;;19.16;65.82;100910.44;255948;1096;114533;-74
2021/07/10 11:58:10;;;;;;;1.68;1.58;;;;;;;19.22;67.45;100904.28;256359;1095;114509;-71
2021/07/10 12:03:21;;;;;;;2.03;1.55;;;;;;;19.27;66.24;100907.22;255729;1095;114890;-72
2021/07/10 12:08:24;;;;;;;1.53;1.43;;;;;;;19.39;66.27;100909.34;255370;1096;114649;-71
2021/07/10 12:13:29;;;;;;;2.98;1.50;;;;;;;19.31;65.67;100908.47;255881;1095;114605;-76
2021/07/10 12:18:32;;;;;;;;;;;;;;;19.38;64.91;100902.30;256686;1096;114799;-70
2021/07/10 12:23:40;;;;;;;1.13;1.13;;;;;;;19.40;65.07;100902.95;255687;1096;103086;-73
2021/07/10 12:28:46;;;;;;;2.00;1.85;;;;;;;19.30;64.82;100909.47;255953;1095;114458;-72
2021/07/10 12:33:56;;;;;;;1.40;1.40;;;;;;;19.31;64.86;100911.16;255749;1096;114979;-73
2021/07/10 12:39:08;;;;;;;2.38;2.28;;;;;;;19.28;65.65;100911.55;255869;1094;115154;-72
2021/07/10 12:44:16;;;;;;;1.80;1.70;;;;;;;19.40;65.22;100906.45;255559;1095;114394;-75
2021/07/10 12:49:19;;;;;;;2.28;2.18;;;;;;;19.53;65.92;100894.95;258195;1096;114963;-74
2021/07/10 12:54:30;;;;;;;4.60;4.30;;;;;;;19.54;65.83;100891.23;257622;1096;114713;-74
2021/07/10 12:59:34;;;;;;;3.63;3.43;;;;;;;19.67;64.70;100904.75;257263;1095;114533;-72
2021/07/10 13:04:36;;;;;;;3.98;3.40;;;;;;;19.64;65.21;100898.96;256743;1095;114576;-73
2021/07/10 13:09:38;;;;;;;2.35;2.15;;;;;;;19.75;65.30;100887.66;256883;1096;114322;-77
2021/07/10 13:14:41;;;;;;;2.00;1.90;;;;;;;19.83;63.92;100896.34;256852;1096;114342;-73
2021/07/10 13:19:43;;;;;;;2.50;2.23;;;;;;;19.64;64.65;100888.23;256541;1095;114425;-75
2021/07/10 13:24:45;;;;;;;2.40;2.30;;;;;;;19.68;65.29;100898.36;256696;1096;114236;-75
2021/07/10 13:29:47;;;;;;;2.10;2.00;;;;;;;19.62;65.51;100888.45;256617;1096;114262;-74
2021/07/10 13:34:49;;;;;;;2.70;2.50;;;;;;;19.78;66.22;100892.63;256781;1095;114937;-76
2021/07/10 13:39:51;;;;;;;2.60;2.43;;;;;;;19.81;66.38;100892.20;256725;1095;114946;-74
2021/07/10 13:45:03;;;;;;;8.75;7.28;;;;;;;19.77;65.27;100896.31;256900;1095;115131;-75
2021/07/10 13:50:11;;;;;;;3.93;3.63;;;;;;;19.65;64.77;100888.02;256720;1095;118355;-75
2021/07/10 13:55:15;;;;;;;4.00;2.90;;;;;;;19.56;65.45;100883.84;256761;1096;114731;-76
2021/07/10 14:00:33;;;;;;;3.48;3.25;;;;;;;19.69;65.43;100889.27;256845;1096;114385;-75
2021/07/10 14:05:40;;;;;;;2.30;2.10;;;;;;;19.76;64.99;100884.77;256659;1095;114224;-75
2021/07/10 14:10:47;;;;;;;2.65;2.30;;;;;;;19.86;65.29;100883.58;256082;1096;115148;-76
2021/07/10 14:15:53;;;;;;;3.78;2.33;;;;;;;19.77;64.74;100881.05;256886;1095;114829;-72
2021/07/10 14:20:56;;;;;;;2.30;2.10;;;;;;;19.75;65.33;100885.80;256074;1096;114347;-73
2021/07/10 14:26:00;;;;;;;3.33;1.73;;;;;;;19.84;65.26;100875.71;256953;1095;114370;-75
2021/07/10 14:31:02;;;;;;;1.95;1.73;;;;;;;19.79;64.72;100883.55;257324;1096;114329;-74
2021/07/10 14:36:05;;;;;;;3.10;2.90;;;;;;;19.76;65.54;100882.08;256776;1095;114268;-74
2021/07/10 14:41:08;;;;;;;2.00;1.90;;;;;;;19.67;65.46;100880.62;256899;1094;116820;-74
2021/07/10 14:46:10;;;;;;;2.00;1.78;;;;;;;19.72;64.66;100874.64;256708;1094;114659;-76
2021/07/10 14:51:13;;;;;;;1.85;1.43;;;;;;;19.72;64.98;100870.11;256849;1095;114905;-73
2021/07/10 14:56:15;;;;;;;1.60;1.50;;;;;;;19.79;64.64;100867.45;256954;1095;114665;-74
2021/07/10 15:01:17;;;;;;;1.78;1.68;;;;;;;19.76;64.40;100863.31;256761;1095;114415;-75
2021/07/10 15:06:20;;;;;;;2.13;2.03;;;;;;;19.86;64.40;100862.12;256811;1095;114363;-74
2021/07/10 15:11:22;;;;;;;1.83;1.70;;;;;;;20.02;64.97;100859.05;255914;1096;115066;-76
2021/07/10 15:16:25;;;;;;;1.80;1.70;;;;;;;20.16;64.32;100852.66;257490;1096;114244;-74
2021/07/10 15:21:28;;;;;;;1.77;1.67;;;;;;;20.24;63.58;100844.41;257510;1096;114885;-73
2021/07/10 15:26:30;;;;;;;2.98;2.78;;;;;;;20.22;63.93;100835.74;256639;1095;114989;-75
2021/07/10 15:31:33;;;;;;;3.90;3.50;;;;;;;20.21;63.43;100834.10;256768;1096;114452;-75
2021/07/10 15:36:35;;;;;;;5.08;4.68;;;;;;;20.48;63.14;100836.80;256729;1096;114261;-78
2021/07/10 15:41:37;;;;;;;3.87;2.93;;;;;;;21.19;61.45;100820.77;256996;1095;114536;-78
2021/07/10 15:46:41;;;;;;;2.25;2.15;;;;;;;21.43;60.66;100821.11;256762;1095;114613;-77
2021/07/10 15:51:43;;;;;;;3.10;2.90;;;;;;;21.17;61.58;100825.51;257979;1095;114680;-72
2021/07/10 15:56:45;;;;;;;2.80;2.20;;;;;;;22.02;58.85;100822.63;257285;1096;115126;-78
2021/07/10 16:01:47;;;;;;;2.90;2.70;;;;;;;21.81;60.18;100814.91;256963;1094;115003;-78
2021/07/10 16:06:50;;;;;;;3.13;2.93;;;;;;;21.59;59.56;100815.23;257012;1094;114975;-76
2021/07/10 16:11:52;;;;;;;1.98;1.88;;;;;;;21.25;61.52;100809.14;256911;1094;114866;-78
2021/07/10 16:16:54;;;;;;;3.60;2.20;;;;;;;21.14;62.65;100807.14;256173;1095;114712;-72
2021/07/10 16:21:57;;;;;;;3.38;3.18;;;;;;;20.88;62.25;100810.73;257113;1096;114722;-78
2021/07/10 16:26:59;;;;;;;4.38;2.70;;;;;;;20.78;61.61;100815.70;256578;1095;115302;-78
2021/07/10 16:32:02;;;;;;;1.90;1.80;;;;;;;20.65;62.66;100808.49;256760;1094;114898;-76
2021/07/10 16:37:04;;;;;;;2.40;2.20;;;;;;;20.62;61.71;100808.91;256780;1095;115192;-76
2021/07/10 16:42:07;;;;;;;2.98;1.80;;;;;;;20.57;62.14;100807.89;256595;1095;114793;-72
2021/07/10 16:47:09;;;;;;;1.90;1.80;;;;;;;20.53;62.72;100808.30;256871;1096;115086;-73
2021/07/10 16:52:11;;;;;;;2.00;1.90;;;;;;;20.54;63.07;100809.95;256570;1095;114723;-75
2021/07/10 16:57:13;;;;;;;2.30;2.10;;;;;;;20.56;62.01;100812.44;256790;1095;114728;-76
2021/07/10 17:02:15;;;;;;;1.30;1.30;;;;;;;20.59;61.34;100809.31;256126;1095;115545;-73
2021/07/10 17:07:18;;;;;;;2.00;1.90;;;;;;;20.59;61.17;100817.38;256488;1095;114848;-73
2021/07/10 17:12:20;;;;;;;3.63;3.33;;;;;;;20.44;61.03;100812.22;256786;1096;114937;-72
2021/07/10 17:17:23;;;;;;;2.40;2.30;;;;;;;20.33;62.37;100812.84;256215;1096;114296;-76
2021/07/10 17:22:25;;;;;;;2.40;2.20;;;;;;;20.29;62.63;100806.23;256864;1095;114939;-73
2021/07/10 17:27:29;;;;;;;1.27;1.27;;;;;;;20.20;63.77;100800.22;256287;1095;115577;-73
2021/07/10 17:32:31;;;;;;;1.80;1.70;;;;;;;20.13;61.99;100799.41;256868;1095;114640;-72
2021/07/10 17:37:33;;;;;;;1.28;1.18;;;;;;;20.12;62.55;100813.84;256859;1096;114522;-74
2021/07/10 17:42:36;;;;;;;1.03;1.03;;;;;;;20.10;64.13;100799.82;256645;1095;114701;-71
2021/07/10 17:47:39;;;;;;;1.85;1.35;;;;;;;20.07;63.34;100797.54;256720;1095;114494;-73
2021/07/10 17:52:43;;;;;;;1.43;1.33;;;;;;;20.05;65.12;100807.67;256733;1096;114865;-73
2021/07/10 17:57:47;;;;;;;1.43;1.43;;;;;;;20.00;64.71;100815.48;257171;1095;114614;-78
2021/07/10 18:02:50;;;;;;;1.98;1.38;;;;;;;19.90;64.43;100815.90;256913;1096;114633;-76
2021/07/10 18:07:52;;;;;;;4.88;1.40;;;;;;;19.78;66.81;100815.67;257098;1095;114509;-77
2021/07/10 18:12:55;;;;;;;1.88;1.68;;;;;;;19.70;68.30;100815.00;257683;1096;114876;-77
2021/07/10 18:17:57;;;;;;;2.58;1.60;;;;;;;19.70;68.78;100821.22;257015;1095;114459;-77
2021/07/10 18:22:59;;;;;;;2.13;1.83;;;;;;;19.66;69.05;100828.02;256832;1096;115381;-79
2021/07/10 18:28:02;;;;;;;1.80;1.70;;;;;;;19.66;69.67;100822.66;256913;1096;115914;-73
2021/07/10 18:33:04;;;;;;;2.45;1.50;;;;;;;19.54;69.25;100832.25;257040;1096;115101;-75
2021/07/10 18:38:09;;;;;;;1.78;1.65;;;;;;;19.44;69.14;100826.46;257176;1096;115398;-77
2021/07/10 18:43:12;;;;;;;3.63;2.05;;;;;;;19.32;69.91;100840.44;257230;1094;115704;-72
2021/07/10 18:48:15;;;;;;;4.13;2.33;;;;;;;19.17;70.82;100836.23;256582;1095;114437;-79
2021/07/10 18:53:18;;;;;;;5.53;2.10;;;;;;;19.11;70.42;100832.48;256965;1095;114331;-73
2021/07/10 18:58:21;;;;;;;1.98;1.88;;;;;;;19.10;70.08;100844.23;256873;1096;115869;-76
2021/07/10 19:03:24;;;;;;;3.55;1.80;;;;;;;19.04;70.89;100853.08;256942;1095;114865;-72
2021/07/10 19:08:26;;;;;;;3.15;1.95;;;;;;;18.94;72.46;100847.23;256416;1096;114494;-72
2021/07/10 19:13:29;;;;;;;5.93;2.10;;;;;;;18.76;73.20;100850.40;257119;1096;114936;-72
2021/07/10 19:18:31;;;;;;;4.03;1.90;;;;;;;18.71;73.46;100864.38;257095;1095;115305;-75
2021/07/10 19:23:34;;;;;;;4.35;2.08;;;;;;;18.66;73.64;100865.97;257160;1095;114496;-72
2021/07/10 19:28:39;;;;;;;2.57;1.97;;;;;;;18.56;73.67;100872.47;256043;1096;114665;-73
2021/07/10 19:33:41;;;;;;;3.98;2.35;;;;;;;18.50;73.53;100867.08;257203;1096;115651;-71
2021/07/10 19:38:43;;;;;;;2.70;2.50;;;;;;;18.43;74.68;100867.02;256007;1095;114925;-71
2021/07/10 19:43:46;;;;;;;4.05;2.38;;;;;;;18.29;75.79;100870.58;255979;1096;114788;-73
2021/07/10 19:48:48;;;;;;;6.33;2.95;;;;;;;18.17;75.66;100867.59;255800;1096;115513;-77
2021/07/10 19:53:53;;;;;;;5.23;2.58;;;;;;;18.14;75.28;100867.99;256447;1095;115058;-72
2021/07/10 19:58:56;;;;;;;3.15;2.60;;;;;;;18.07;76.32;100877.80;256809;1096;114367;-72
2021/07/10 20:03:58;;;;;;;3.43;2.65;;;;;;;17.98;76.79;100873.56;256854;1095;114956;-75
2021/07/10 20:09:00;;;;;;;5.25;3.70;;;;;;;17.91;77.46;100878.04;256819;1095;114539;-72
2021/07/10 20:14:03;;;;;;;4.35;3.68;;;;;;;17.86;76.65;100874.09;256668;1094;114368;-74
2021/07/10 20:19:05;;;;;;;4.18;3.50;;;;;;;17.85;76.58;100872.41;256733;1096;114493;-77
2021/07/10 20:24:07;;;;;;;6.20;4.20;;;;;;;17.78;76.58;100879.52;256838;1096;114401;-77
2021/07/10 20:29:13;;;;;;;5.23;4.50;;;;;;;17.71;77.02;100867.92;256709;1096;114693;-77
2021/07/10 20:34:15;;;;;;;5.43;4.50;;;;;;;17.63;76.70;100876.02;256780;1095;114766;-77
2021/07/10 20:39:17;;;;;;;7.00;4.83;;;;;;;17.63;78.40;100871.53;256846;1095;114850;-75
2021/07/10 20:44:19;;;;;;;6.10;5.53;;;;;;;17.64;78.33;100867.83;256352;1095;115053;-72
2021/07/10 20:49:22;;;;;;;6.58;5.93;;;;;;;17.60;78.73;100871.07;256806;1096;114812;-72
2021/07/10 20:54:24;;;;;;;6.43;5.80;;;;;;;17.52;79.01;100880.02;256790;1096;114592;-72
2021/07/10 20:59:26;;;;;;;7.10;6.53;;;;;;;17.47;79.65;100870.89;256431;1096;114877;-73
2021/07/10 21:04:28;;;;;;;7.75;6.18;;;;;;;17.49;78.66;100868.88;256487;1096;114785;-80
2021/07/10 21:09:31;;;;;;;6.90;6.30;;;;;;;17.49;79.46;100877.72;256959;1095;114490;-76
2021/07/10 21:14:33;;;;;;;7.68;6.15;;;;;;;17.38;79.67;100875.52;256889;1095;114472;-71
2021/07/10 21:19:36;;;;;;;6.53;5.93;;;;;;;17.33;79.68;100876.08;256402;1095;114590;-76
2021/07/10 21:24:38;;;;;;;5.73;5.23;;;;;;;17.26;79.58;100880.49;256733;1095;114559;-77
2021/07/10 21:29:40;;;;;;;6.58;5.63;;;;;;;17.32;79.41;100884.28;256615;1094;115210;-77
2021/07/10 21:34:43;;;;;;;5.20;4.60;;;;;;;17.30;79.46;100880.95;256679;1096;114288;-80
2021/07/10 21:39:47;;;;;;;5.35;4.95;;;;;;;17.28;79.93;100877.63;256580;1095;114640;-74
2021/07/10 21:44:50;;;;;;;6.03;5.43;;;;;;;17.22;79.06;100873.86;256688;1094;114438;-76
2021/07/10 21:49:52;;;;;;;6.13;5.50;;;;;;;17.15;79.08;100879.11;255548;1096;114611;-74
2021/07/10 21:54:54;;;;;;;6.38;5.35;;;;;;;17.12;79.76;100878.64;257801;1095;115488;-76
2021/07/10 21:59:57;;;;;;;5.43;5.00;;;;;;;17.10;79.41;100875.34;257342;1095;114784;-72
2021/07/10 22:04:59;;;;;;;6.30;5.70;;;;;;;16.96;79.30;100863.63;256488;1096;114483;-77
2021/07/10 22:10:01;;;;;;;6.68;6.00;;;;;;;16.82;79.98;100867.95;256650;1096;114376;-78
2021/07/10 22:15:05;;;;;;;9.10;6.08;;;;;;;16.79;80.32;100860.30;256587;1095;114240;-71
2021/07/10 22:20:09;;;;;;;9.28;6.08;;;;;;;16.71;80.43;100859.53;255339;1096;114683;-75
2021/07/10 22:25:12;;;;;;;7.20;5.98;;;;;;;16.70;80.14;100837.35;256040;1095;114485;-71
2021/07/10 22:30:15;;;;;;;7.78;5.83;;;;;;;16.66;80.14;100844.06;255560;1095;114665;-73
2021/07/10 22:35:18;;;;;;;6.80;6.20;;;;;;;16.62;80.28;100842.77;257531;1096;114440;-74
2021/07/10 22:40:21;;;;;;;6.08;5.45;;;;;;;16.55;80.34;100844.50;261053;1096;114766;-71
2021/07/10 22:45:23;;;;;;;7.08;5.93;;;;;;;16.50;80.33;100841.52;259011;1095;114676;-76
2021/07/10 22:50:26;;;;;;;6.50;5.90;;;;;;;16.54;80.50;100849.02;258042;1095;114901;-77
2021/07/10 22:55:28;;;;;;;7.55;6.75;;;;;;;16.52;80.36;100844.86;261511;1096;113286;-77